Time;durP1;ratioP1;P1;durP2;ratioP2;P2;SDS_P1;SDS_P2;PMS_P1;PMS_P2;Temp;Humidity;BMP_temperature;BMP_pressure;BME280_temperature;BME280_humidity;BME280_pressure;Samples;Min_cycle;Max_cycle;Signal;HPM_P1;HPM_P2
2024/01/12 00:02:45;;;;;;;3.72;2.10;;;;;;;;;;5040851;28;20071;-72
2024/01/12 00:06:25;;;;;;;4.30;2.40;;;;;;;;;;5037389;28;20049;-72
2024/01/12 00:10:05;;;;;;;4.45;2.20;;;;;;;;;;5041610;28;20049;-72
2024/01/12 00:13:49;;;;;;;4.40;2.15;;;;;;;;;;5043463;28;20115;-73
2024/01/12 00:17:29;;;;;;;5.55;2.72;;;;;;;;;;5052194;28;20635;-72
2024/01/12 00:21:09;;;;;;;5.78;2.45;;;;;;;;;;5041107;28;20496;-71
2024/01/12 00:24:51;;;;;;;4.78;2.45;;;;;;;;;;5052564;28;20099;-71
2024/01/12 00:28:33;;;;;;;6.57;2.90;;;;;;;;;;5047044;28;20044;-71
2024/01/12 00:32:15;;;;;;;7.28;3.47;;;;;;;;;;5042007;28;20052;-73
2024/01/12 00:35:57;;;;;;;5.93;2.67;;;;;;;;;;5051080;28;20053;-71
2024/01/12 00:39:39;;;;;;;4.68;2.33;;;;;;;;;;5048337;28;20049;-73
2024/01/12 00:43:19;;;;;;;5.20;2.30;;;;;;;;;;5046585;28;20044;-72
2024/01/12 00:47:01;;;;;;;5.13;2.05;;;;;;;;;;5052615;28;20107;-72
2024/01/12 00:50:43;;;;;;;6.30;2.50;;;;;;;;;;5039934;28;20120;-72
2024/01/12 00:54:26;;;;;;;5.18;2.15;;;;;;;;;;5048285;28;20071;-72
2024/01/12 00:58:04;;;;;;;6.63;2.60;;;;;;;;;;5049961;28;20065;-73
2024/01/12 01:01:44;;;;;;;5.88;2.40;;;;;;;;;;5048158;28;20049;-71
2024/01/12 01:05:24;;;;;;;4.53;2.33;;;;;;;;;;5044023;28;20052;-72
2024/01/12 01:09:05;;;;;;;6.13;2.38;;;;;;;;;;5042598;28;20461;-72
2024/01/12 01:12:45;;;;;;;5.13;2.10;;;;;;;;;;5048093;28;20037;-70
2024/01/12 01:16:25;;;;;;;3.85;2.60;;;;;;;;;;5048086;28;20048;-71
2024/01/12 01:20:07;;;;;;;5.90;2.72;;;;;;;;;;5047431;28;20056;-70
2024/01/12 01:23:46;;;;;;;6.65;2.45;;;;;;;;;;5051958;28;20499;-72
2024/01/12 01:27:28;;;;;;;5.25;3.00;;;;;;;;;;5049434;28;20694;-71
2024/01/12 01:31:08;;;;;;;5.15;2.67;;;;;;;;;;5043685;28;20458;-70
2024/01/12 01:34:49;;;;;;;4.88;2.35;;;;;;;;;;5040201;28;20052;-72
2024/01/12 01:38:32;;;;;;;7.38;2.20;;;;;;;;;;5048324;28;20037;-71
2024/01/12 01:42:12;;;;;;;4.10;1.80;;;;;;;;;;5047048;28;20126;-72
2024/01/12 01:45:53;;;;;;;2.50;1.70;;;;;;;;;;5047705;28;20051;-72
2024/01/12 01:49:33;;;;;;;3.65;1.90;;;;;;;;;;5046127;28;20048;-69
2024/01/12 01:53:13;;;;;;;3.08;1.83;;;;;;;;;;5047005;28;20106;-69
2024/01/12 01:56:54;;;;;;;3.15;1.80;;;;;;;;;;5044129;28;20460;-72
2024/01/12 02:00:35;;;;;;;2.47;1.75;;;;;;;;;;5046835;28;20040;-70
2024/01/12 02:04:15;;;;;;;2.70;1.77;;;;;;;;;;5047835;28;20087;-70
2024/01/12 02:07:58;;;;;;;2.58;1.70;;;;;;;;;;5039381;28;20105;-70
2024/01/12 02:11:39;;;;;;;3.13;1.88;;;;;;;;;;5046481;28;20591;-73
2024/01/12 02:15:19;;;;;;;2.03;1.48;;;;;;;;;;5048229;28;20462;-70
2024/01/12 02:18:59;;;;;;;2.40;1.55;;;;;;;;;;5043785;28;20049;-70
2024/01/12 02:22:40;;;;;;;3.70;1.70;;;;;;;;;;5047724;28;20040;-71
2024/01/12 02:26:20;;;;;;;2.80;1.70;;;;;;;;;;5046074;28;20063;-72
2024/01/12 02:30:00;;;;;;;2.83;1.80;;;;;;;;;;5044750;28;20059;-71
2024/01/12 02:33:41;;;;;;;1.80;1.50;;;;;;;;;;5046100;28;20512;-70
2024/01/12 02:37:21;;;;;;;2.45;1.40;;;;;;;;;;5045640;28;20057;-70
2024/01/12 02:41:02;;;;;;;2.38;1.63;;;;;;;;;;5047640;28;20398;-70
2024/01/12 02:44:42;;;;;;;1.95;1.30;;;;;;;;;;5047597;28;20033;-72
2024/01/12 02:48:22;;;;;;;1.65;1.35;;;;;;;;;;5048387;28;20243;-71
2024/01/12 02:52:03;;;;;;;2.00;1.27;;;;;;;;;;5051641;28;20053;-70
2024/01/12 02:55:43;;;;;;;1.70;1.50;;;;;;;;;;5041110;28;20386;-72
2024/01/12 02:59:24;;;;;;;2.13;1.40;;;;;;;;;;5046437;28;20076;-73
2024/01/12 03:03:04;;;;;;;3.50;1.58;;;;;;;;;;5048606;28;20441;-73
2024/01/12 03:06:45;;;;;;;1.80;1.40;;;;;;;;;;5039459;28;20413;-74
2024/01/12 03:10:26;;;;;;;2.38;1.45;;;;;;;;;;5045247;28;20103;-70
2024/01/12 03:14:07;;;;;;;2.13;1.38;;;;;;;;;;5047518;28;20396;-71
2024/01/12 03:17:49;;;;;;;1.65;1.30;;;;;;;;;;5047847;28;20524;-72
2024/01/12 03:21:30;;;;;;;2.78;1.42;;;;;;;;;;5041249;28;20041;-70
2024/01/12 03:25:10;;;;;;;3.92;1.50;;;;;;;;;;5054082;28;20227;-70
2024/01/12 03:28:50;;;;;;;4.07;1.70;;;;;;;;;;5044204;28;21175;-70
2024/01/12 03:32:35;;;;;;;2.63;1.85;;;;;;;;;;5046683;28;20045;-71
2024/01/12 03:36:13;;;;;;;4.05;1.90;;;;;;;;;;5041271;28;20103;-74
2024/01/12 03:39:53;;;;;;;3.95;1.60;;;;;;;;;;5046194;28;20130;-70
2024/01/12 03:43:34;;;;;;;4.55;1.65;;;;;;;;;;5047929;28;20087;-71
2024/01/12 03:47:15;;;;;;;3.83;1.75;;;;;;;;;;5055395;28;20768;-70
2024/01/12 03:50:55;;;;;;;2.95;1.40;;;;;;;;;;5043198;28;20045;-71
2024/01/12 03:54:36;;;;;;;4.30;1.60;;;;;;;;;;5045725;28;20053;-70
2024/01/12 03:58:16;;;;;;;4.32;1.58;;;;;;;;;;5046947;28;20052;-70
2024/01/12 04:01:56;;;;;;;1.88;1.60;;;;;;;;;;5045159;28;20052;-71
2024/01/12 04:05:37;;;;;;;5.40;1.77;;;;;;;;;;5045183;28;20143;-72
2024/01/12 04:09:18;;;;;;;2.03;1.60;;;;;;;;;;5045797;28;20049;-70
2024/01/12 04:12:59;;;;;;;2.50;1.85;;;;;;;;;;5059686;28;20400;-71
2024/01/12 04:16:39;;;;;;;2.08;1.60;;;;;;;;;;5047043;28;20531;-72
2024/01/12 04:20:19;;;;;;;2.63;1.90;;;;;;;;;;5055576;28;20073;-72
2024/01/12 04:24:00;;;;;;;2.95;2.10;;;;;;;;;;5047813;28;20084;-70
2024/01/12 04:27:40;;;;;;;5.65;1.92;;;;;;;;;;5053088;28;20493;-71
2024/01/12 04:31:22;;;;;;;2.83;1.77;;;;;;;;;;5044580;28;20049;-70
2024/01/12 04:35:02;;;;;;;3.13;1.67;;;;;;;;;;5047077;28;20531;-71
2024/01/12 04:38:44;;;;;;;1.83;1.48;;;;;;;;;;5049748;28;20053;-71
2024/01/12 04:42:25;;;;;;;2.78;1.58;;;;;;;;;;5051090;28;20447;-71
2024/01/12 04:46:06;;;;;;;2.42;1.50;;;;;;;;;;5047367;28;20120;-70
2024/01/12 04:49:47;;;;;;;2.40;1.42;;;;;;;;;;5048209;28;20552;-72
2024/01/12 04:53:30;;;;;;;2.72;1.40;;;;;;;;;;5043490;28;20048;-72
2024/01/12 04:57:10;;;;;;;2.47;1.70;;;;;;;;;;5046121;28;20265;-70
2024/01/12 05:00:51;;;;;;;2.38;1.52;;;;;;;;;;5048550;28;20504;-70
2024/01/12 05:04:32;;;;;;;5.28;1.60;;;;;;;;;;5047687;28;20497;-71
2024/01/12 05:08:12;;;;;;;2.05;1.42;;;;;;;;;;5048936;28;20052;-70
2024/01/12 05:11:53;;;;;;;2.40;1.25;;;;;;;;;;5049479;28;20053;-72
2024/01/12 05:15:34;;;;;;;2.58;1.60;;;;;;;;;;5051081;28;20045;-73
2024/01/12 05:19:14;;;;;;;2.10;1.17;;;;;;;;;;5047207;28;20041;-71
2024/01/12 05:22:56;;;;;;;2.60;1.50;;;;;;;;;;5055958;28;20128;-71
2024/01/12 05:26:36;;;;;;;1.88;1.50;;;;;;;;;;5041018;28;20047;-74
2024/01/12 05:30:18;;;;;;;2.60;1.60;;;;;;;;;;5049354;28;20033;-72
2024/01/12 05:33:58;;;;;;;1.83;1.60;;;;;;;;;;5042593;28;20044;-74
2024/01/12 05:37:39;;;;;;;2.40;1.70;;;;;;;;;;5049540;28;20056;-74
2024/01/12 05:41:19;;;;;;;10.95;2.08;;;;;;;;;;5044409;28;20074;-76
2024/01/12 05:45:02;;;;;;;2.78;1.88;;;;;;;;;;5046944;28;20138;-75
2024/01/12 05:48:43;;;;;;;4.10;2.10;;;;;;;;;;5047719;28;20037;-72
2024/01/12 05:52:23;;;;;;;1.95;1.48;;;;;;;;;;5045145;28;20057;-72
2024/01/12 05:56:04;;;;;;;2.83;2.10;;;;;;;;;;5050147;28;20152;-72
2024/01/12 05:59:44;;;;;;;3.28;2.00;;;;;;;;;;5045204;28;20037;-70
2024/01/12 06:03:28;;;;;;;5.05;1.80;;;;;;;;;;5046235;28;20455;-73
2024/01/12 06:07:05;;;;;;;2.78;1.80;;;;;;;;;;5051141;28;20045;-71
2024/01/12 06:10:45;;;;;;;2.38;1.80;;;;;;;;;;5047298;28;20060;-70
2024/01/12 06:14:25;;;;;;;2.85;1.90;;;;;;;;;;5047463;28;20045;-73
2024/01/12 06:18:06;;;;;;;2.72;1.80;;;;;;;;;;5051322;28;20064;-73
2024/01/12 06:21:46;;;;;;;2.90;2.08;;;;;;;;;;5050764;28;20244;-71
2024/01/12 06:25:29;;;;;;;2.95;1.80;;;;;;;;;;5048322;28;20049;-72
2024/01/12 06:29:09;;;;;;;3.08;2.00;;;;;;;;;;5043471;28;20052;-73
2024/01/12 06:32:50;;;;;;;5.25;2.20;;;;;;;;;;5036950;28;20523;-72
2024/01/12 06:36:30;;;;;;;3.42;2.20;;;;;;;;;;5050230;28;21678;-71
2024/01/12 06:40:13;;;;;;;2.58;1.80;;;;;;;;;;5047250;28;20065;-72
2024/01/12 06:43:53;;;;;;;3.17;1.77;;;;;;;;;;5039400;28;20049;-71
2024/01/12 06:47:34;;;;;;;4.80;2.42;;;;;;;;;;5045758;28;20087;-72
2024/01/12 06:51:16;;;;;;;4.15;2.03;;;;;;;;;;5046746;28;20111;-71
2024/01/12 06:54:57;;;;;;;6.22;1.75;;;;;;;;;;5039180;28;20425;-71
2024/01/12 06:58:37;;;;;;;3.22;2.20;;;;;;;;;;5045030;28;20106;-71
2024/01/12 07:02:20;;;;;;;6.45;2.00;;;;;;;;;;5045795;28;20532;-73
2024/01/12 07:06:05;;;;;;;3.53;1.77;;;;;;;;;;5045881;28;20051;-72
2024/01/12 07:09:45;;;;;;;5.65;2.05;;;;;;;;;;5043571;28;20045;-73
2024/01/12 07:13:27;;;;;;;3.40;2.22;;;;;;;;;;5045654;28;20047;-71
2024/01/12 07:17:07;;;;;;;6.28;2.00;;;;;;;;;;5047673;28;20116;-72
2024/01/12 07:20:48;;;;;;;4.22;2.38;;;;;;;;;;5046769;28;20448;-72
2024/01/12 07:24:30;;;;;;;6.80;3.28;;;;;;;;;;5046696;28;20092;-72
2024/01/12 07:28:10;;;;;;;5.55;2.72;;;;;;;;;;5051814;28;20104;-75
2024/01/12 07:31:50;;;;;;;7.07;2.45;;;;;;;;;;5048010;28;20041;-70
2024/01/12 07:35:31;;;;;;;5.75;2.13;;;;;;;;;;5047413;28;20037;-77
2024/01/12 07:39:12;;;;;;;5.90;2.55;;;;;;;;;;5038685;28;20456;-70
2024/01/12 07:42:53;;;;;;;7.10;2.35;;;;;;;;;;5036736;28;20053;-71
2024/01/12 07:46:37;;;;;;;6.80;2.13;;;;;;;;;;5044954;28;20075;-69
2024/01/12 07:50:17;;;;;;;6.78;2.40;;;;;;;;;;5045135;28;20409;-71
2024/01/12 07:53:59;;;;;;;8.80;2.35;;;;;;;;;;5053523;28;20053;-72
2024/01/12 07:57:39;;;;;;;5.80;2.75;;;;;;;;;;5054785;28;20409;-71
2024/01/12 08:01:19;;;;;;;3.70;1.90;;;;;;;;;;5052506;28;20150;-68
2024/01/12 08:05:01;;;;;;;5.28;2.00;;;;;;;;;;5044175;28;20049;-68
2024/01/12 08:08:43;;;;;;;4.63;2.33;;;;;;;;;;5045760;28;20111;-68
2024/01/12 08:12:25;;;;;;;5.95;2.50;;;;;;;;;;5051554;28;20041;-70
2024/01/12 08:16:06;;;;;;;5.85;2.17;;;;;;;;;;5047215;28;20056;-70
2024/01/12 08:19:47;;;;;;;8.88;2.25;;;;;;;;;;5045491;28;20049;-68
2024/01/12 08:23:26;;;;;;;15.65;2.30;;;;;;;;;;5044556;28;20413;-69
2024/01/12 08:27:07;;;;;;;6.40;2.20;;;;;;;;;;5044991;28;20049;-69
2024/01/12 08:30:48;;;;;;;6.95;2.50;;;;;;;;;;5047313;28;20043;-69
2024/01/12 08:34:30;;;;;;;7.97;2.40;;;;;;;;;;5050999;28;20433;-71
2024/01/12 08:38:10;;;;;;;8.25;2.38;;;;;;;;;;5046960;28;20156;-72
2024/01/12 08:41:51;;;;;;;10.85;2.53;;;;;;;;;;5042022;28;20448;-72
2024/01/12 08:45:31;;;;;;;9.32;2.70;;;;;;;;;;5044621;28;20512;-71
2024/01/12 08:49:12;;;;;;;12.05;2.75;;;;;;;;;;5048630;28;20045;-73
2024/01/12 08:52:52;;;;;;;8.32;2.35;;;;;;;;;;5048988;28;20398;-73
2024/01/12 08:56:32;;;;;;;16.30;2.72;;;;;;;;;;5045875;28;20056;-73
2024/01/12 09:00:13;;;;;;;9.80;3.03;;;;;;;;;;5048902;28;20154;-71
2024/01/12 09:03:53;;;;;;;4.40;2.55;;;;;;;;;;5045611;28;20065;-72
2024/01/12 09:07:33;;;;;;;9.73;2.83;;;;;;;;;;5038178;28;20048;-71
2024/01/12 09:11:14;;;;;;;7.97;2.63;;;;;;;;;;5046269;28;20110;-73
2024/01/12 09:14:54;;;;;;;8.82;2.85;;;;;;;;;;5046489;28;20119;-72
2024/01/12 09:18:34;;;;;;;5.93;2.50;;;;;;;;;;5047085;28;20116;-72
2024/01/12 09:22:15;;;;;;;10.20;2.72;;;;;;;;;;5056575;28;20068;-72
2024/01/12 09:25:55;;;;;;;9.07;2.78;;;;;;;;;;5042911;28;20071;-70
2024/01/12 09:29:35;;;;;;;5.00;2.70;;;;;;;;;;5058523;28;20219;-71
2024/01/12 09:33:16;;;;;;;11.15;3.50;;;;;;;;;;5042880;28;20091;-70
2024/01/12 09:36:56;;;;;;;7.80;2.78;;;;;;;;;;5048110;28;20083;-71
2024/01/12 09:40:37;;;;;;;9.98;3.10;;;;;;;;;;5047934;28;20496;-72
2024/01/12 09:44:17;;;;;;;6.95;2.75;;;;;;;;;;5046203;28;20504;-71
2024/01/12 09:47:58;;;;;;;9.80;3.10;;;;;;;;;;5047435;28;20057;-72
2024/01/12 09:51:39;;;;;;;9.25;2.83;;;;;;;;;;5045337;28;20060;-72
2024/01/12 09:55:19;;;;;;;11.15;2.72;;;;;;;;;;5042481;28;20091;-70
2024/01/12 09:58:59;;;;;;;15.52;3.17;;;;;;;;;;5050055;28;20045;-71
2024/01/12 10:02:40;;;;;;;7.93;2.60;;;;;;;;;;5052140;28;20041;-72
2024/01/12 10:06:20;;;;;;;7.90;2.60;;;;;;;;;;5045626;28;20103;-72
2024/01/12 10:10:01;;;;;;;11.38;2.83;;;;;;;;;;5046425;28;20049;-72
2024/01/12 10:13:42;;;;;;;7.00;2.58;;;;;;;;;;5045265;28;20110;-73
2024/01/12 10:17:22;;;;;;;5.53;2.50;;;;;;;;;;5047572;28;20041;-70
2024/01/12 10:21:03;;;;;;;6.50;2.88;;;;;;;;;;5045794;28;20041;-74
2024/01/12 10:24:44;;;;;;;10.60;2.95;;;;;;;;;;5044566;28;20105;-73
2024/01/12 10:28:24;;;;;;;6.10;2.70;;;;;;;;;;5051733;28;20044;-72
2024/01/12 10:32:06;;;;;;;7.43;2.60;;;;;;;;;;5039436;28;20048;-72
2024/01/12 10:35:50;;;;;;;11.77;2.90;;;;;;;;;;5038402;28;20039;-73
2024/01/12 10:39:32;;;;;;;4.32;2.38;;;;;;;;;;5043588;28;20057;-71
2024/01/12 10:43:12;;;;;;;5.35;2.72;;;;;;;;;;5049484;28;20547;-71
2024/01/12 10:46:38;;;;;;;6.40;2.60;;;;;;;;;;5050992;28;20363;-71
2024/01/12 10:50:00;;;;;;;;;;;;;;;;;;5049345;28;20128;-72
2024/01/12 10:53:46;;;;;;;6.05;2.83;;;;;;;;;;5047488;28;20442;-74
2024/01/12 10:57:30;;;;;;;10.85;3.35;;;;;;;;;;5042382;28;20084;-71
2024/01/12 11:01:26;;;;;;;9.95;3.20;;;;;;;;;;5035932;28;20221;-72
2024/01/12 11:05:09;;;;;;;11.15;4.15;;;;;;;;;;5033505;28;20053;-73
2024/01/12 11:08:50;;;;;;;8.82;4.18;;;;;;;;;;5049378;28;20068;-70
2024/01/12 11:12:32;;;;;;;9.05;4.10;;;;;;;;;;5049504;28;20045;-76
2024/01/12 11:16:12;;;;;;;11.60;4.53;;;;;;;;;;5046338;28;20108;-74
2024/01/12 11:19:56;;;;;;;9.98;4.50;;;;;;;;;;5048686;28;20099;-72
2024/01/12 11:23:36;;;;;;;12.40;4.50;;;;;;;;;;5045741;28;20051;-71
2024/01/12 11:27:17;;;;;;;14.60;4.78;;;;;;;;;;5054003;28;20102;-71
2024/01/12 11:30:59;;;;;;;12.57;4.35;;;;;;;;;;5045674;28;20056;-72
2024/01/12 11:34:40;;;;;;;16.90;5.30;;;;;;;;;;5051883;28;20053;-70
2024/01/12 11:38:24;;;;;;;9.55;5.15;;;;;;;;;;5051648;28;20046;-71
2024/01/12 11:42:07;;;;;;;11.70;4.70;;;;;;;;;;5046559;28;20148;-72
2024/01/12 11:45:48;;;;;;;10.20;4.00;;;;;;;;;;5043641;28;20348;-71
2024/01/12 11:49:28;;;;;;;7.65;4.40;;;;;;;;;;5046410;28;20133;-71
2024/01/12 11:53:16;;;;;;;9.50;4.55;;;;;;;;;;5048830;28;20064;-71
2024/01/12 11:57:01;;;;;;;11.43;4.15;;;;;;;;;;5040270;28;20045;-70
2024/01/12 12:00:40;;;;;;;10.68;5.20;;;;;;;;;;5043961;28;20047;-73
2024/01/12 12:04:20;;;;;;;9.98;5.63;;;;;;;;;;5048548;28;20124;-70
2024/01/12 12:08:06;;;;;;;11.32;6.20;;;;;;;;;;5050586;28;20051;-72
2024/01/12 12:11:48;;;;;;;16.52;6.05;;;;;;;;;;5048337;28;20074;-74
2024/01/12 12:15:36;;;;;;;9.98;5.47;;;;;;;;;;5045863;28;20044;-74
2024/01/12 12:19:18;;;;;;;13.25;5.60;;;;;;;;;;5045997;28;20141;-72
2024/01/12 12:22:58;;;;;;;10.30;5.40;;;;;;;;;;5049170;28;20056;-72
2024/01/12 12:26:42;;;;;;;9.45;5.55;;;;;;;;;;5045654;28;20385;-74
2024/01/12 12:30:21;;;;;;;9.13;4.82;;;;;;;;;;5048644;28;20041;-74
2024/01/12 12:34:02;;;;;;;8.68;4.97;;;;;;;;;;5051308;28;20256;-73
2024/01/12 12:37:42;;;;;;;10.38;4.78;;;;;;;;;;5050748;28;20053;-72
2024/01/12 12:41:23;;;;;;;10.15;4.90;;;;;;;;;;5049207;28;20409;-72
2024/01/12 12:45:03;;;;;;;13.25;5.45;;;;;;;;;;5056232;28;20377;-73
2024/01/12 12:48:45;;;;;;;8.38;4.53;;;;;;;;;;5044757;28;20045;-71
2024/01/12 12:52:26;;;;;;;7.78;4.57;;;;;;;;;;5047092;28;20064;-72
2024/01/12 12:56:07;;;;;;;16.67;6.65;;;;;;;;;;5046835;28;20413;-72
2024/01/12 12:59:47;;;;;;;8.15;4.68;;;;;;;;;;5046783;28;20037;-74
2024/01/12 13:03:27;;;;;;;13.32;6.57;;;;;;;;;;5045584;28;20183;-74
2024/01/12 13:07:09;;;;;;;7.70;4.35;;;;;;;;;;5045213;28;20087;-75
2024/01/12 13:10:52;;;;;;;7.63;4.80;;;;;;;;;;5046329;28;20127;-73
2024/01/12 13:14:29;;;;;;;11.20;5.10;;;;;;;;;;5046641;28;20182;-72
2024/01/12 13:18:09;;;;;;;8.05;4.50;;;;;;;;;;5050625;28;20075;-72
2024/01/12 13:21:51;;;;;;;8.73;4.30;;;;;;;;;;5049572;28;20455;-71
2024/01/12 13:25:32;;;;;;;7.53;4.35;;;;;;;;;;5044264;28;20044;-73
2024/01/12 13:29:12;;;;;;;10.32;3.97;;;;;;;;;;5048324;28;20068;-73
2024/01/12 13:32:52;;;;;;;7.05;5.05;;;;;;;;;;5046302;28;20132;-73
2024/01/12 13:36:33;;;;;;;9.80;4.93;;;;;;;;;;5051180;28;20041;-73
2024/01/12 13:40:14;;;;;;;12.63;4.47;;;;;;;;;;5049846;28;20037;-72
2024/01/12 13:43:54;;;;;;;10.82;4.88;;;;;;;;;;5044428;28;20148;-72
2024/01/12 13:47:34;;;;;;;10.38;4.25;;;;;;;;;;5050433;28;20646;-72
2024/01/12 13:51:15;;;;;;;10.20;4.45;;;;;;;;;;5049244;28;20790;-72
2024/01/12 13:54:55;;;;;;;10.07;4.53;;;;;;;;;;5043350;28;20164;-75
2024/01/12 13:58:35;;;;;;;8.13;4.28;;;;;;;;;;5045253;28;20092;-71
2024/01/12 14:02:15;;;;;;;10.48;4.55;;;;;;;;;;5044717;28;20353;-73
2024/01/12 14:05:56;;;;;;;9.00;5.05;;;;;;;;;;5047869;28;20456;-72
2024/01/12 14:09:36;;;;;;;16.63;7.65;;;;;;;;;;5046507;28;20045;-72
2024/01/12 14:13:16;;;;;;;16.42;6.68;;;;;;;;;;5046663;28;20152;-74
2024/01/12 14:17:00;;;;;;;16.40;7.28;;;;;;;;;;5046279;28;20400;-72
2024/01/12 14:20:40;;;;;;;15.00;8.23;;;;;;;;;;5047956;28;20109;-73
2024/01/12 14:24:21;;;;;;;10.30;7.18;;;;;;;;;;5046331;28;20586;-73
2024/01/12 14:28:06;;;;;;;12.13;6.28;;;;;;;;;;5052634;28;20056;-74
2024/01/12 14:31:45;;;;;;;13.38;7.70;;;;;;;;;;5047731;28;20096;-75
2024/01/12 14:35:25;;;;;;;24.90;14.43;;;;;;;;;;5048421;28;20140;-74
2024/01/12 14:39:06;;;;;;;15.50;8.32;;;;;;;;;;5035703;28;20040;-72
2024/01/12 14:42:47;;;;;;;19.65;9.50;;;;;;;;;;5045800;28;20037;-72
2024/01/12 14:46:27;;;;;;;27.25;10.88;;;;;;;;;;5045415;28;20071;-74
2024/01/12 14:50:08;;;;;;;15.63;6.82;;;;;;;;;;5045094;28;20053;-72
2024/01/12 14:53:48;;;;;;;16.38;8.30;;;;;;;;;;5042572;28;20056;-72
2024/01/12 14:57:28;;;;;;;22.90;11.10;;;;;;;;;;5048156;28;20057;-75
2024/01/12 15:01:09;;;;;;;25.67;16.73;;;;;;;;;;5046385;28;20052;-73
2024/01/12 15:04:49;;;;;;;36.35;21.98;;;;;;;;;;5044564;28;20252;-73
2024/01/12 15:08:30;;;;;;;29.55;16.10;;;;;;;;;;5045152;28;20044;-73
2024/01/12 15:12:10;;;;;;;36.03;20.48;;;;;;;;;;5044274;28;20041;-73
2024/01/12 15:15:52;;;;;;;30.63;15.30;;;;;;;;;;5045599;28;20128;-73
2024/01/12 15:19:32;;;;;;;25.17;12.52;;;;;;;;;;5043613;28;20041;-72
2024/01/12 15:23:12;;;;;;;10.90;6.78;;;;;;;;;;5046023;28;20382;-74
2024/01/12 15:26:53;;;;;;;18.90;7.40;;;;;;;;;;5048577;28;20149;-76
2024/01/12 15:30:34;;;;;;;10.40;4.80;;;;;;;;;;5042469;28;20040;-74
2024/01/12 15:34:14;;;;;;;8.77;4.15;;;;;;;;;;5047503;28;20132;-72
2024/01/12 15:37:55;;;;;;;13.23;7.22;;;;;;;;;;5046987;28;20451;-71
2024/01/12 15:41:35;;;;;;;16.13;6.70;;;;;;;;;;5050307;28;20044;-71
2024/01/12 15:45:16;;;;;;;8.35;4.18;;;;;;;;;;5051306;28;20067;-66
2024/01/12 15:48:57;;;;;;;9.15;4.82;;;;;;;;;;5043741;28;20124;-70
2024/01/12 15:52:38;;;;;;;12.35;4.32;;;;;;;;;;5043668;28;20092;-73
2024/01/12 15:56:18;;;;;;;8.55;3.63;;;;;;;;;;5037422;28;20128;-73
2024/01/12 15:59:59;;;;;;;6.35;3.38;;;;;;;;;;5045782;28;20175;-71
2024/01/12 16:03:40;;;;;;;7.93;3.40;;;;;;;;;;5039704;28;20342;-73
2024/01/12 16:07:20;;;;;;;18.20;4.30;;;;;;;;;;5040189;28;20059;-72
2024/01/12 16:11:01;;;;;;;16.52;4.97;;;;;;;;;;5037541;28;20092;-72
2024/01/12 16:14:41;;;;;;;12.30;3.60;;;;;;;;;;5033503;28;20159;-71
2024/01/12 16:18:21;;;;;;;11.20;3.65;;;;;;;;;;5031990;28;20489;-72
2024/01/12 16:22:02;;;;;;;7.32;3.42;;;;;;;;;;5032102;28;20098;-71
2024/01/12 16:25:42;;;;;;;7.70;3.50;;;;;;;;;;5032449;28;20045;-74
2024/01/12 16:29:22;;;;;;;10.25;3.72;;;;;;;;;;5035227;28;20053;-69
2024/01/12 16:33:03;;;;;;;9.68;3.65;;;;;;;;;;5040584;28;20055;-73
2024/01/12 16:36:46;;;;;;;11.43;3.67;;;;;;;;;;5032409;28;20046;-72
2024/01/12 16:40:28;;;;;;;13.77;4.03;;;;;;;;;;5030494;28;20626;-69
2024/01/12 16:44:12;;;;;;;13.75;4.28;;;;;;;;;;5033881;28;20064;-71
2024/01/12 16:47:53;;;;;;;12.88;4.60;;;;;;;;;;5035358;28;20400;-71
2024/01/12 16:51:36;;;;;;;11.18;3.97;;;;;;;;;;5036873;28;20111;-71
2024/01/12 16:55:17;;;;;;;13.07;4.22;;;;;;;;;;5034063;28;20448;-71
2024/01/12 16:58:59;;;;;;;15.93;4.20;;;;;;;;;;5032017;28;20056;-71
2024/01/12 17:02:40;;;;;;;10.35;4.20;;;;;;;;;;5037401;28;20079;-71
2024/01/12 17:06:20;;;;;;;11.85;4.15;;;;;;;;;;5035256;28;20068;-70
2024/01/12 17:10:04;;;;;;;10.65;4.18;;;;;;;;;;5038947;28;20037;-72
2024/01/12 17:13:43;;;;;;;8.02;3.65;;;;;;;;;;5035051;28;20048;-71
2024/01/12 17:17:24;;;;;;;11.45;4.25;;;;;;;;;;5030170;28;20049;-70
2024/01/12 17:21:05;;;;;;;12.70;4.80;;;;;;;;;;5032404;28;20844;-72
2024/01/12 17:24:47;;;;;;;7.88;4.00;;;;;;;;;;5029144;28;20115;-70
2024/01/12 17:27:52;;;;;;;7.63;4.13;;;;;;;;;;5035478;28;20052;-71
2024/01/12 17:30:18;;;;;;;9.27;4.32;;;;;;;;;;5034366;28;20110;-71
2024/01/12 17:32:45;;;;;;;13.90;4.63;;;;;;;;;;5031043;28;20049;-68
2024/01/12 17:35:12;;;;;;;8.13;4.13;;;;;;;;;;5032288;28;20386;-68
2024/01/12 17:37:42;;;;;;;17.33;4.47;;;;;;;;;;5029626;28;20049;-71
2024/01/12 17:40:11;;;;;;;9.63;4.30;;;;;;;;;;5034097;28;20050;-72
2024/01/12 17:42:40;;;;;;;12.00;3.80;;;;;;;;;;5028509;28;20049;-72
2024/01/12 17:45:08;;;;;;;7.45;3.60;;;;;;;;;;5028035;28;20041;-71
2024/01/12 17:47:34;;;;;;;8.43;3.65;;;;;;;;;;5065264;28;20053;-71
2024/01/12 17:50:03;;;;;;;11.07;4.43;;;;;;;;;;5031172;28;20184;-72
2024/01/12 17:52:30;;;;;;;6.65;3.72;;;;;;;;;;5034250;28;20149;-73
2024/01/12 17:54:59;;;;;;;8.18;4.57;;;;;;;;;;5034337;28;20141;-74
2024/01/12 17:57:27;;;;;;;7.75;4.10;;;;;;;;;;5031771;28;20048;-71
2024/01/12 17:59:54;;;;;;;8.73;4.70;;;;;;;;;;5034185;28;20114;-69
2024/01/12 18:02:22;;;;;;;10.82;4.50;;;;;;;;;;5034679;28;20102;-70
2024/01/12 18:04:50;;;;;;;10.60;4.43;;;;;;;;;;5033072;28;20045;-71
2024/01/12 18:07:18;;;;;;;11.00;4.35;;;;;;;;;;5034170;28;20052;-73
2024/01/12 18:09:45;;;;;;;9.32;4.38;;;;;;;;;;5032490;28;20417;-70
2024/01/12 18:12:10;;;;;;;6.78;4.05;;;;;;;;;;5035165;28;20114;-78
2024/01/12 18:14:37;;;;;;;9.85;4.25;;;;;;;;;;5029519;28;20053;-74
2024/01/12 18:17:04;;;;;;;8.38;5.03;;;;;;;;;;5045079;28;20068;-72
2024/01/12 18:19:33;;;;;;;17.27;4.70;;;;;;;;;;5032318;28;20071;-73
2024/01/12 18:22:00;;;;;;;5.63;4.30;;;;;;;;;;5042358;28;20065;-74
2024/01/12 18:24:27;;;;;;;8.43;4.40;;;;;;;;;;5047698;28;20084;-73
2024/01/12 18:26:55;;;;;;;9.23;4.75;;;;;;;;;;5032698;28;20084;-74
2024/01/12 18:29:25;;;;;;;9.27;4.90;;;;;;;;;;5036601;28;20045;-76
2024/01/12 18:31:51;;;;;;;8.00;4.60;;;;;;;;;;5041385;28;20052;-73
2024/01/12 18:34:18;;;;;;;17.15;4.68;;;;;;;;;;5033185;28;20095;-73
2024/01/12 18:36:46;;;;;;;8.10;4.05;;;;;;;;;;5038361;28;20067;-79
2024/01/12 18:39:13;;;;;;;10.50;4.63;;;;;;;;;;5039125;28;20049;-74
2024/01/12 18:41:39;;;;;;;10.75;4.90;;;;;;;;;;5038906;28;21537;-73
2024/01/12 18:44:05;;;;;;;9.43;4.70;;;;;;;;;;5065870;28;20592;-74
2024/01/12 18:46:31;;;;;;;18.17;5.55;;;;;;;;;;5032028;28;20131;-73
2024/01/12 18:48:59;;;;;;;14.98;6.30;;;;;;;;;;5034084;28;20051;-73
2024/01/12 18:51:26;;;;;;;13.40;5.72;;;;;;;;;;5032923;28;20058;-73
2024/01/12 18:53:53;;;;;;;17.08;6.38;;;;;;;;;;5029770;28;20124;-74
2024/01/12 18:56:19;;;;;;;17.65;5.80;;;;;;;;;;5068746;28;20045;-73
2024/01/12 18:58:45;;;;;;;12.18;6.18;;;;;;;;;;5032298;28;20079;-73
2024/01/12 19:01:11;;;;;;;10.05;5.95;;;;;;;;;;5031180;28;20085;-71
2024/01/12 19:03:42;;;;;;;19.33;7.40;;;;;;;;;;5033671;28;20053;-72
2024/01/12 19:06:08;;;;;;;12.23;6.88;;;;;;;;;;5033510;28;20519;-73
2024/01/12 19:08:37;;;;;;;20.17;8.00;;;;;;;;;;5032488;28;20045;-76
2024/01/12 19:11:04;;;;;;;20.63;7.53;;;;;;;;;;5032067;28;20056;-77
2024/01/12 19:13:31;;;;;;;14.55;7.13;;;;;;;;;;5024419;28;20061;-73
2024/01/12 19:15:59;;;;;;;18.73;6.88;;;;;;;;;;5028062;28;20075;-75
2024/01/12 19:18:28;;;;;;;13.75;6.30;;;;;;;;;;5029367;28;20045;-73
2024/01/12 19:20:54;;;;;;;21.38;6.40;;;;;;;;;;5030962;28;20055;-72
2024/01/12 19:23:22;;;;;;;14.23;6.32;;;;;;;;;;5029938;28;20055;-73
2024/01/12 19:25:52;;;;;;;13.02;6.13;;;;;;;;;;5026859;28;20049;-71
2024/01/12 19:28:21;;;;;;;16.23;6.47;;;;;;;;;;5029138;28;20056;-69
2024/01/12 19:30:49;;;;;;;16.00;6.35;;;;;;;;;;5035273;28;20053;-71
2024/01/12 19:33:19;;;;;;;17.85;6.15;;;;;;;;;;5032704;28;20046;-72
2024/01/12 19:35:45;;;;;;;21.33;7.40;;;;;;;;;;5052456;28;20048;-71
2024/01/12 19:38:12;;;;;;;19.95;6.75;;;;;;;;;;5053653;28;20433;-71
2024/01/12 19:40:39;;;;;;;14.02;6.55;;;;;;;;;;5042303;28;20049;-71
2024/01/12 19:43:07;;;;;;;17.17;6.88;;;;;;;;;;5035997;28;20083;-71
2024/01/12 19:45:32;;;;;;;16.75;7.60;;;;;;;;;;5038137;28;20048;-74
2024/01/12 19:47:59;;;;;;;23.23;7.30;;;;;;;;;;5042226;28;20055;-71
2024/01/12 19:50:25;;;;;;;14.48;7.35;;;;;;;;;;5043166;28;20041;-71
2024/01/12 19:52:54;;;;;;;13.15;7.40;;;;;;;;;;5044326;28;20067;-72
2024/01/12 19:55:20;;;;;;;17.83;6.53;;;;;;;;;;5079151;28;20053;-70
2024/01/12 19:57:46;;;;;;;21.73;7.88;;;;;;;;;;5043005;28;20045;-72
2024/01/12 20:00:12;;;;;;;16.10;7.88;;;;;;;;;;5045628;28;20096;-72
2024/01/12 20:02:39;;;;;;;23.45;9.00;;;;;;;;;;5048357;28;20070;-73
2024/01/12 20:05:05;;;;;;;27.50;8.63;;;;;;;;;;5040253;28;20406;-72
2024/01/12 20:07:36;;;;;;;17.58;9.73;;;;;;;;;;5042806;28;20084;-72
2024/01/12 20:10:02;;;;;;;20.40;7.30;;;;;;;;;;5048744;28;20063;-73
2024/01/12 20:12:33;;;;;;;22.35;7.72;;;;;;;;;;5039533;28;20056;-72
2024/01/12 20:15:00;;;;;;;16.75;6.75;;;;;;;;;;5042858;28;20048;-73
2024/01/12 20:17:26;;;;;;;12.45;7.30;;;;;;;;;;5058555;28;20471;-74
2024/01/12 20:19:53;;;;;;;25.60;8.70;;;;;;;;;;5047717;28;20524;-74
2024/01/12 20:22:20;;;;;;;14.02;6.25;;;;;;;;;;5056903;28;20041;-74
2024/01/12 20:24:46;;;;;;;12.35;6.95;;;;;;;;;;5050625;28;20049;-73
2024/01/12 20:27:12;;;;;;;14.25;6.00;;;;;;;;;;5050791;28;20421;-73